LEWISTON (LEW)

Elevation: 1870' · TRINITY R basin · Operator: US Bureau of Reclamation

Provisional data, subject to change.
Query executed Sunday at 2:16:37   clock

Select a sensor type for a plot of data.
Note: Reservoir Flows are daily averages.

Earlier

Date RES ELE    STORAGE    RES CHG    OUTFLOW    INFLOW    EVAP    RIV REL    SPILL    DIS PWR   
 FEET   AF   AF   CFS   CFS   CFS   CFS   CFS   CFS  
09/27/2014 1901.52 14300 -127 1236 1174 2 496 341 0
09/28/2014 1900.98 13896 -404 789 589 4 496 341 0
09/29/2014 1901.11 13993 97 1217 1267 1 492 337 0
09/30/2014 1901.33 14158 165 1152 1238 3 495 340 0
10/01/2014 1901.00 13911 -247 1093 972 4 490 335 0
10/02/2014 1900.96 13882 -29 1122 1110 3 494 339 0
10/03/2014 1900.82 13779 -103 1152 1105 5 512 357 0
10/04/2014 1901.02 13926 147 1138 1215 3 517 362 0
10/05/2014 1901.28 14120 194 1006 1108 4 517 362 0
10/06/2014 1901.41 14218 98 1020 1073 4 498 343 0
10/07/2014 1901.70 14435 217 952 1064 3 487 332 0
10/08/2014 1901.54 14315 -120 1058 1002 4 488 333 0
10/09/2014 1901.69 14427 112 1086 1146 4 488 333 0
10/10/2014 1900.86 13808 -619 879 570 3 486 331 0
10/11/2014 1901.24 14091 283 1386 1531 2 474 319 0
10/12/2014 1901.42 14225 134 1282 1353 3 454 299 0
10/13/2014 1901.21 14068 -157 1030 954 3 450 295 0
10/14/2014 1901.48 14270 202 1102 1207 3 452 297 0
10/15/2014 1901.32 14150 -120 1110 1052 2 399 244 0
10/16/2014 1901.08 13971 -179 1079 991 2 370 215 0
10/17/2014 1901.52 14300 329 1005 1173 2 311 156 0
10/18/2014 1900.76 13734 -566 1046 762 1 303 148 0
10/19/2014 1901.35 14173 439 955 1176 0 302 147 0
10/20/2014 1901.68 14420 247 2169 2294 0 305 150 0
10/21/2014 1901.89 14577 157 2205 2287 3 298 143 0
10/22/2014 1901.95 14622 45 1458 1483 2 292 137 0
10/23/2014 1901.65 14397 -225 1222 1109 0 307 152 0
10/24/2014 1901.67 14412 15 1075 1084 1 320 165 0
10/25/2014 -- -- -- -- -- -- -- -- --
10/26/2014 -- -- -- -- -- -- -- -- --

Later | Latest

Warning! This data is preliminary and subject to revision.

Show LEW Map | Plot LEW Data | 1 Month LEW Data | Real-Time LEW Data | LEW Info